METAR Data
IDs: Format: Raw Decoded Include TAF

Data at: 1019 UTC 26 Sep 2018

KCPK 261015Z AUTO 00000KT 1/2SM FG OVC002 22/22 A3003 RMK AO2 T02200215
KCPK 260955Z AUTO 00000KT 1/4SM FG OVC002 22/21 A3003 RMK AO2 LTG DSNT N T02200213
KCPK 260935Z AUTO 00000KT 1/2SM FG OVC002 22/22 A3003 RMK AO2 T02200215
KCPK 260915Z AUTO 00000KT 3/4SM BR OVC002 22/21 A3003 RMK AO2 T02200213
KCPK 260855Z AUTO 00000KT 3/4SM BR OVC002 22/21 A3004 RMK AO2 T02170211
KCPK 260835Z AUTO 00000KT 2SM BR BKN002 OVC007 21/21 A3004 RMK AO2 T02140208
KCPK 260815Z AUTO 00000KT 4SM BR BKN007 OVC012 22/21 A3005 RMK AO2 T02170211
KCPK 260755Z AUTO 00000KT 1 1/4SM BR OVC011 21/21 A3005 RMK AO2 T02110206
KCPK 260735Z AUTO 00000KT 7SM BKN009 OVC015 21/21 A3005 RMK AO2 LTG DSNT NW T02110205
KCPK 260715Z AUTO 00000KT 4SM BR SCT002 BKN011 OVC016 21/21 A3005 RMK AO2 T02110205
KCPK 260655Z AUTO 00000KT 2 1/2SM BR BKN002 OVC012 21/21 A3006 RMK AO2 VIS 1 1/2V4 T02140208
KCPK 260635Z AUTO 00000KT 7SM BKN002 BKN013 21/21 A3006 RMK AO2 T02120207
KCPK 260615Z AUTO 00000KT 7SM SCT002 SCT013 22/21 A3006 RMK AO2 T02160211
KCPK 260555Z AUTO 00000KT 7SM BKN002 BKN010 OVC014 23/22 A3007 RMK AO2 T02250220 10239 20214
KCPK 260535Z AUTO 00000KT 3/4SM BR BKN002 OVC010 22/21 A3007 RMK AO2 T02180212
KCPK 260515Z AUTO 00000KT 1/2SM FG BKN004 OVC011 22/21 A3008 RMK AO2 T02150208
KCPK 260455Z AUTO 00000KT 1/2SM FG BKN002 OVC008 22/21 A3009 RMK AO2 T02160210 402810189
KCPK 260435Z AUTO 00000KT 1SM BR BKN002 OVC011 22/21 A3010 RMK AO2 T02160209
KCPK 260415Z AUTO 00000KT 5SM BR SCT009 BKN016 BKN023 22/21 A3010 RMK AO2 T02200214
KCPK 260355Z AUTO 00000KT 4SM BR BKN020 22/22 A3011 RMK AO2 T02200215
KCPK 260335Z AUTO 00000KT 1 3/4SM BR BKN004 OVC022 22/21 A3012 RMK AO2 T02150210
KCPK 260315Z AUTO 00000KT 4SM BR BKN006 22/21 A3012 RMK AO2 T02200214
KCPK 260255Z AUTO 00000KT 5SM BR BKN008 23/22 A3012 RMK AO2 T02300223
KCPK 260235Z AUTO 00000KT 5SM BR BKN010 23/23 A3012 RMK AO2 T02300225
KCPK 260215Z AUTO 00000KT 5SM BR SCT016 23/22 A3012 RMK AO2 T02270221
KCPK 260155Z AUTO 07003KT 5SM BR SCT005 BKN009 BKN018 23/22 A3012 RMK AO2 T02280222
KCPK 260135Z AUTO 00000KT 5SM BR SCT007 BKN020 23/23 A3012 RMK AO2 T02320226
KCPK 260115Z AUTO 00000KT 4SM BR SCT007 SCT016 23/22 A3012 RMK AO2 T02280222
KCPK 260055Z AUTO 00000KT 5SM BR SCT007 SCT016 24/23 A3013 RMK AO2 T02350230
KCPK 260035Z AUTO 00000KT 7SM SCT020 24/23 A3013 RMK AO2 T02390231
KCPK 260015Z AUTO 00000KT 5SM BR SCT010 BKN020 BKN046 24/23 A3012 RMK AO2 T02370230
KCPK 252355Z AUTO 00000KT 5SM BR BKN010 BKN018 BKN044 24/23 A3013 RMK AO2 60001 T02400231 10270 20240
KCPK 252335Z AUTO 00000KT 7SM BKN010 BKN030 OVC041 24/23 A3013 RMK AO2 T02410233
KCPK 252315Z AUTO 00000KT 5SM BR BKN010 OVC037 24/23 A3014 RMK AO2 T02430234
KCPK 252255Z AUTO 09004KT 5SM BR BKN012 BKN029 OVC055 25/24 A3014 RMK AO2 T02450235
KCPK 252235Z AUTO 10005KT 7SM BKN012 BKN029 OVC055 25/24 A3014 RMK AO2 LTG DSNT SW T02460235
KCPK 252215Z AUTO 11006KT 7SM OVC012 25/24 A3014 RMK AO2 T02500236
KCPK 252155Z AUTO 11004KT 7SM SCT010 BKN013 BKN050 25/24 A3015 RMK AO2 P0001 T02500238
KCPK 252135Z AUTO 11005KT 10SM -RA SCT045 SCT070 BKN110 25/24 A3014 RMK AO2 LTG DSNT SW P0001 T02500235
KCPK 252115Z AUTO 12004KT 5SM -RA SCT011 SCT027 BKN080 26/24 A3014 RMK AO2 T02550235
KCPK 252055Z AUTO 10005KT 7SM SCT011 26/24 A3015 RMK AO2 LTG DSNT S AND SW T02590239
KCPK 252035Z AUTO 13006KT 7SM CLR 26/24 A3014 RMK AO2 LTG DSNT S AND SW T02590235
KCPK 252015Z AUTO 14004KT 7SM SCT014 BKN021 SCT026 26/23 A3014 RMK AO2 T02610234
KCPK 251955Z AUTO 10006KT 7SM BKN014 BKN019 OVC120 26/23 A3015 RMK AO2 T02550233
KCPK 251935Z AUTO 10007KT 7SM BKN014 BKN120 27/23 A3014 RMK AO2 LTG DSNT S T02650231
KCPK 251915Z AUTO 05008KT 10SM -RA BKN014 BKN021 OVC075 27/24 A3015 RMK AO2 LTG DSNT SE T02690236
KCPK 251900Z AUTO 08007KT 10SM RA SCT017 BKN040 OVC060 26/24 A3017 RMK AO2 LTG DSNT S T02580237
KCPK 251840Z AUTO 08008KT 7SM VCTS SCT012 SCT023 OVC041 25/23 A3018 RMK AO2 LTG DSNT S T02490232
KCPK 251815Z AUTO 08008KT 7SM VCTSRA SCT040 BKN049 OVC060 25/24 A3017 RMK AO2 LTG DSNT E AND S T02530235
KCPK 251755Z AUTO 10005KT 7SM -RA SCT027 BKN048 OVC050 25/23 A3018 RMK AO2 LTG DSNT E AND S T02450232 10281 20200
KCPK 251735Z AUTO 10008KT 7SM -RA BKN021 BKN028 OVC042 25/23 A3019 RMK AO2 LTG DSNT S T02530232
KCPK 251715Z AUTO 10011G15KT 7SM SCT021 BKN044 OVC050 27/23 A3019 RMK AO2 LTG DSNT SE T02740230
KCPK 251655Z AUTO 11007KT 7SM SCT022 SCT034 OVC050 28/23 A3019 RMK AO2 LTG DSNT SE T02750225
KCPK 251635Z AUTO 12007KT 4SM HZ SCT022 BKN035 OVC070 28/23 A3020 RMK AO2 LTG DSNT S T02750230
KCPK 251615Z AUTO 10006KT 7SM SCT038 BKN047 OVC065 28/23 A3020 RMK AO2 T02770230
KCPK 251600Z AUTO 12006KT 7SM SCT035 BKN044 OVC050 27/23 A3021 RMK AO2 T02690232
KCPK 251535Z AUTO 13011KT 7SM SCT024 BKN037 OVC050 28/23 A3022 RMK AO2 T02750226
KCPK 251515Z AUTO 13007KT 7SM SCT024 OVC037 28/23 A3022 RMK AO2 T02750226
KCPK 251455Z AUTO 12007KT 090V150 7SM SCT024 BKN036 BKN045 28/23 A3023 RMK AO2 LTG DSNT SE T02770229
KCPK 251435Z AUTO 10005KT 10SM BKN022 BKN027 28/23 A3023 RMK AO2 LTG DSNT S T02760229
KCPK 251415Z AUTO 10007KT 7SM BKN019 27/23 A3024 RMK AO2 T02700227
KCPK 251355Z AUTO 10006KT 7SM CLR 26/23 A3024 RMK AO2 T02600227
KCPK 251335Z AUTO 08004KT 5SM HZ CLR 26/23 A3024 RMK AO2 LTG DSNT SE T02550228
KCPK 251315Z AUTO 08004KT 5SM BR CLR 25/23 A3024 RMK AO2 T02510231
KCPK 251255Z AUTO 06003KT 5SM BR SCT028 SCT036 24/23 A3023 RMK AO2 T02400227
KCPK 251235Z AUTO 00000KT 7SM SCT026 23/23 A3023 RMK AO2 T02310225
KCPK 251215Z AUTO 00000KT 7SM -RA CLR 21/21 A3023 RMK AO2 T02140208
KCPK 251155Z AUTO 00000KT 4SM RA SCT017 20/19 A3023 RMK AO2 70035 T02000194 10225 20189
KCPK 251135Z AUTO 00000KT 1/2SM RA BKN009 BKN013 OVC019 20/19 A3023 RMK AO2 T01970191
KCPK 251115Z AUTO 00000KT M1/4SM FG OVC013 19/19 A3022 RMK AO2 T01940188
KCPK 251055Z AUTO 00000KT 1/2SM FG BKN015 BKN023 OVC070 19/19 A3022 RMK AO2 T01930187
KCPK 251035Z AUTO 00000KT 2 1/2SM BR SCT007 SCT018 SCT023 19/19 A3021 RMK AO2 T01920186
KCPK 251015Z AUTO 00000KT 1 1/2SM BR SCT001 BKN008 OVC090 19/19 A3021 RMK AO2 VIS 3/4V4 T01910185
KCPK 250955Z AUTO 00000KT 1/2SM FG OVC008 20/20 A3020 RMK AO2 T02030197
KCPK 250935Z AUTO 00000KT 1/2SM FG BKN008 OVC018 20/20 A3021 RMK AO2 T02010195
KCPK 250915Z AUTO 00000KT 5SM BR CLR 20/20 A3021 RMK AO2 T02010195
KCPK 250855Z AUTO 00000KT 5SM BR CLR 20/19 A3020 RMK AO2 T02000193
KCPK 250835Z AUTO 00000KT 5SM BR SCT023 20/19 A3020 RMK AO2 T02000194
KCPK 250815Z AUTO 00000KT 2SM BR BKN023 BKN028 OVC033 21/20 A3021 RMK AO2 T02070201
KCPK 250755Z AUTO 00000KT 4SM BR SCT026 SCT033 21/20 A3021 RMK AO2 T02100203
KCPK 250735Z AUTO 00000KT 5SM BR CLR 21/20 A3021 RMK AO2 T02100204
KCPK 250715Z AUTO 00000KT 7SM SCT027 21/21 A3022 RMK AO2 T02140207
KCPK 250655Z AUTO 00000KT 5SM BR CLR 22/21 A3023 RMK AO2 T02190213
KCPK 250635Z AUTO 00000KT 7SM SCT110 23/22 A3023 RMK AO2 T02250219
KCPK 250615Z AUTO 00000KT 5SM BR BKN100 22/22 A3024 RMK AO2 T02220216
KCPK 250555Z AUTO 00000KT 5SM BR BKN100 22/22 A3024 RMK AO2 T02230216 10232 20223
KCPK 250535Z AUTO 00000KT 7SM BKN100 23/22 A3024 RMK AO2 T02260218
KCPK 250515Z AUTO 00000KT 7SM SCT060 OVC100 23/22 A3024 RMK AO2 T02300221
KCPK 250455Z AUTO 07004KT 7SM OVC060 23/22 A3025 RMK AO2 T02300220 402740205
KCPK 250435Z AUTO 08003KT 7SM OVC060 23/22 A3025 RMK AO2 T02300219
KCPK 250415Z AUTO 08004KT 7SM BKN060 OVC095 23/22 A3025 RMK AO2 T02290217
KCPK 250355Z AUTO 07004KT 7SM OVC095 23/22 A3025 RMK AO2 T02290216
KCPK 250335Z AUTO 07004KT 7SM OVC095 23/22 A3026 RMK AO2 T02300217
KCPK 250315Z AUTO 07004KT 7SM OVC095 23/22 A3026 RMK AO2 T02300219
KCPK 250255Z AUTO 07003KT 7SM OVC095 23/22 A3025 RMK AO2 T02310220
KCPK 250235Z AUTO 05003KT 7SM SCT028 SCT034 OVC095 23/22 A3025 RMK AO2 T02300220
KCPK 250215Z AUTO 08004KT 7SM SCT032 SCT045 BKN095 23/22 A3025 RMK AO2 T02300220
KCPK 250155Z AUTO 06005KT 7SM SCT029 SCT034 SCT095 23/22 A3025 RMK AO2 T02300219
KCPK 250135Z AUTO 06005KT 7SM SCT013 SCT029 OVC034 23/22 A3024 RMK AO2 T02310220
KCPK 250115Z AUTO 08005KT 7SM SCT013 BKN019 BKN031 23/22 A3024 RMK AO2 T02300220
KCPK 250055Z AUTO 08005KT 7SM BKN013 BKN019 BKN028 23/22 A3023 RMK AO2 T02310220
KCPK 250035Z AUTO 06005KT 7SM OVC011 23/22 A3023 RMK AO2 T02310220
KCPK 250015Z AUTO 07004KT 7SM OVC011 23/22 A3023 RMK AO2 T02310220
KCPK 242355Z AUTO 07005KT 7SM BKN011 BKN017 23/22 A3023 RMK AO2 60035 T02320220 10267 20225
KCPK 242335Z AUTO 08006KT 7SM OVC013 24/22 A3022 RMK AO2 T02350220
KCPK 242315Z AUTO 08006KT 7SM BKN013 BKN019 24/22 A3022 RMK AO2 T02360219
KCPK 242255Z AUTO 09008KT 7SM SCT030 24/22 A3021 RMK AO2 T02380215
KCPK 242235Z AUTO 09006KT 7SM SCT030 24/22 A3022 RMK AO2 T02410215